»·PEaware :: AAL1512 KDFW-KBOS

AAL1512 :: KDFW-KBOS

FLIGHT INFORMATION

Flight Status: Arrived
Operator:
American Airlines
More flights by this operator :: More flights under this callsign
Pilot: Drew L. (13237)
Aircraft: BOEING 757-200
(B752)
More flights by this aircraft type
Origin: KDFW Dallas-Ft Worth Intl
United States
Destination: KBOS Logan Intl
United States
More flights between these airports :: More routes between these airports
Route: ZACHH2 BSKAT LIT J131 PXV KLYNE Q29 JHW Q82 PONCT JFUND1
File this flight plan on PilotEdge
Remarks: Sample flight plan
Altitude:
(Current/Filed)
39,000ft
Speed:
(Current/Filed)
115kts
Departed: 27-May-17 09:43 PM
Arrived: 28-May-17 12:00 AM
Distance/Time
Traveled:
1353nm/2:16
Distance/Time
To Go:
Arrived

Flight Plot

Page will automatically refresh every two minutes.

Flight plan parsing failed; only flown route is shown


Map Options




Map Legend


Flown Route
Filed Route
Departure Airport
Arrival Airport
Navaid (VOR, NDB)
Fix

Horizontal Profiles

Position Reports

Time Latitude Longitude Heading Altitude Ground
Speed
27-May-17 21:37 32.897160 -97.033533 180 617ft 0kts
27-May-17 21:38 32.896148 -97.033267 99 617ft 0kts
27-May-17 21:39 32.897248 -97.033158 0 617ft 15kts
27-May-17 21:40 32.902472 -97.033116 0 617ft 19kts
27-May-17 21:41 32.907736 -97.033090 359 617ft 18kts
27-May-17 21:42 32.912820 -97.032726 0 617ft 18kts
27-May-17 21:43 32.915539 -97.030494 91 617ft 11kts
27-May-17 21:44 32.915198 -97.029909 178 617ft 0kts
27-May-17 21:45 32.894443 -97.029884 178 1128ft 155kts
27-May-17 21:46 32.869837 -97.029394 176 2525ft 186kts
27-May-17 21:47 32.812154 -97.004189 161 5284ft 255kts
27-May-17 21:48 32.769018 -96.935184 99 9156ft 290kts
27-May-17 21:49 32.772506 -96.831137 76 11441ft 360kts
27-May-17 21:50 32.821827 -96.719888 60 14449ft 399kts
27-May-17 21:51 32.875641 -96.602372 61 17571ft 418kts
27-May-17 21:52 32.932911 -96.479056 60 20316ft 438kts
27-May-17 21:53 32.991320 -96.350376 60 22776ft 456kts
27-May-17 21:54 33.049612 -96.215429 62 24945ft 473kts
27-May-17 21:55 33.109754 -96.074591 62 26860ft 489kts
27-May-17 21:56 33.171655 -95.928817 62 28604ft 503kts
27-May-17 21:57 33.235876 -95.777785 61 30206ft 517kts
27-May-17 21:58 33.300690 -95.623918 62 31999ft 521kts
27-May-17 21:59 33.365124 -95.470061 61 33904ft 519kts
27-May-17 22:00 33.428643 -95.318039 62 35801ft 515kts
27-May-17 22:01 33.492388 -95.165727 61 37397ft 514kts
27-May-17 22:02 33.556164 -95.012934 61 38810ft 514kts
27-May-17 22:03 33.619937 -94.860760 61 38860ft 513kts
27-May-17 22:04 33.682910 -94.707486 62 38862ft 513kts
27-May-17 22:05 33.745184 -94.553999 61 38864ft 513kts
27-May-17 22:06 33.807311 -94.400556 62 38866ft 514kts
27-May-17 22:07 33.868347 -94.247875 62 38857ft 514kts
27-May-17 22:08 33.930528 -94.093266 62 38859ft 514kts
27-May-17 22:09 33.993135 -93.939036 61 38861ft 514kts
27-May-17 22:10 34.055242 -93.784683 62 38862ft 515kts
27-May-17 22:11 34.116312 -93.631976 62 38861ft 515kts
27-May-17 22:12 34.178215 -93.476966 62 38890ft 515kts
27-May-17 22:13 34.238771 -93.323514 63 38883ft 515kts
27-May-17 22:14 34.299535 -93.167365 63 38884ft 515kts
27-May-17 22:15 34.359872 -93.010282 63 38885ft 516kts
27-May-17 22:16 34.420821 -92.853513 62 38887ft 516kts
27-May-17 22:17 34.481853 -92.696969 63 38916ft 516kts
27-May-17 22:18 34.542479 -92.539653 63 38918ft 516kts
27-May-17 22:19 34.602087 -92.381970 63 38939ft 516kts
27-May-17 22:20 34.661564 -92.225638 63 38938ft 517kts
27-May-17 22:21 34.748822 -92.090913 42 38941ft 510kts
27-May-17 22:22 34.846164 -91.966535 43 38942ft 510kts
27-May-17 22:23 34.943994 -91.841649 43 39023ft 511kts
27-May-17 22:24 35.041405 -91.716568 42 39026ft 511kts
27-May-17 22:25 35.137793 -91.592888 43 39024ft 512kts
27-May-17 22:26 35.234852 -91.467054 43 39003ft 512kts
27-May-17 22:27 35.331010 -91.341491 44 38997ft 512kts
27-May-17 22:28 35.427979 -91.214016 43 38991ft 513kts
27-May-17 22:29 35.524536 -91.086479 44 38993ft 513kts
27-May-17 22:30 35.621831 -90.959652 43 38995ft 513kts
27-May-17 22:31 35.718907 -90.831752 43 38996ft 513kts
27-May-17 22:32 35.815576 -90.703485 44 38998ft 513kts
27-May-17 22:33 35.895826 -90.595184 44 39000ft 513kts
27-May-17 22:34 36.007968 -90.444476 44 39002ft 514kts
27-May-17 22:35 36.087180 -90.338788 44 38998ft 514kts
27-May-17 22:36 36.182703 -90.210412 44 38990ft 514kts
27-May-17 22:37 36.295058 -90.057455 44 38992ft 515kts
27-May-17 22:38 36.375245 -89.948441 44 38994ft 515kts
27-May-17 22:39 36.487191 -89.796544 44 38996ft 515kts
27-May-17 22:40 36.566865 -89.686825 43 38943ft 519kts
27-May-17 22:41 36.663800 -89.553580 43 38946ft 520kts
27-May-17 22:42 36.760318 -89.420355 43 38948ft 520kts
27-May-17 22:43 36.872095 -89.266516 43 38884ft 520kts
27-May-17 22:44 36.952716 -89.155379 43 38914ft 520kts
27-May-17 22:45 37.048283 -89.021018 44 38860ft 520kts
27-May-17 22:46 37.142847 -88.887215 44 38859ft 520kts
27-May-17 22:47 37.239254 -88.752233 44 38861ft 520kts
27-May-17 22:48 37.335503 -88.617339 44 38863ft 520kts
27-May-17 22:49 37.430400 -88.481497 44 38876ft 521kts
27-May-17 22:50 37.523409 -88.347757 44 38848ft 521kts
27-May-17 22:51 37.618786 -88.211391 44 38843ft 521kts
27-May-17 22:52 37.713654 -88.074779 45 38851ft 521kts
27-May-17 22:53 37.808734 -87.937252 44 38887ft 522kts
27-May-17 22:54 37.903879 -87.799314 44 38890ft 521kts
27-May-17 22:55 37.997864 -87.659386 45 38892ft 522kts
27-May-17 22:56 38.091013 -87.518841 45 38894ft 522kts
27-May-17 22:57 38.182457 -87.380371 45 38899ft 521kts
27-May-17 22:58 38.275169 -87.240077 46 38909ft 522kts
27-May-17 22:59 38.367830 -87.097950 46 38911ft 522kts
27-May-17 23:00 38.460188 -86.956207 46 38859ft 522kts
27-May-17 23:01 38.552413 -86.814171 46 38861ft 522kts
27-May-17 23:02 38.645037 -86.671982 46 38863ft 522kts
27-May-17 23:03 38.737111 -86.528974 46 38865ft 522kts
27-May-17 23:04 38.860912 -86.334281 47 38891ft 523kts
27-May-17 23:05 39.066173 -86.010735 47 38915ft 523kts
27-May-17 23:06 39.293841 -85.648216 47 38865ft 523kts
27-May-17 23:07 39.520629 -85.283325 48 38855ft 523kts
27-May-17 23:08 39.747100 -84.913700 47 38888ft 523kts
27-May-17 23:09 39.970043 -84.546156 48 38892ft 524kts
27-May-17 23:10 40.189837 -84.179440 50 38882ft 529kts
27-May-17 23:11 40.423282 -83.789524 50 38888ft 529kts
27-May-17 23:12 40.654652 -83.389388 50 38894ft 529kts
27-May-17 23:13 40.861518 -83.036414 45 38885ft 515kts
27-May-17 23:14 41.084952 -82.652072 46 38916ft 514kts
27-May-17 23:15 41.258025 -82.268595 57 38910ft 522kts
27-May-17 23:16 41.404689 -81.863162 62 38916ft 525kts
27-May-17 23:17 41.526215 -81.478597 61 38972ft 524kts
27-May-17 23:18 41.654587 -81.067698 61 38936ft 524kts
27-May-17 23:19 41.796569 -80.610348 61 38944ft 523kts
27-May-17 23:20 41.917354 -80.161072 65 38935ft 524kts
27-May-17 23:21 42.041803 -79.695325 65 38963ft 524kts
27-May-17 23:22 42.126275 -79.367200 64 38977ft 523kts
27-May-17 23:23 42.218403 -78.901452 75 38967ft 529kts
27-May-17 23:24 42.278880 -78.414112 75 38978ft 529kts
27-May-17 23:25 42.334742 -77.951484 75 38968ft 528kts
27-May-17 23:26 42.389236 -77.483388 75 38974ft 527kts
27-May-17 23:27 42.439496 -77.035674 76 38994ft 527kts
27-May-17 23:28 42.488227 -76.588359 75 38973ft 525kts
27-May-17 23:29 42.533856 -76.147975 76 38990ft 525kts
27-May-17 23:30 42.579082 -75.695387 76 38996ft 525kts
27-May-17 23:31 42.622722 -75.245660 76 38963ft 524kts
27-May-17 23:32 42.664638 -74.788069 77 38968ft 525kts
27-May-17 23:33 42.705876 -74.339005 77 38970ft 524kts
27-May-17 23:34 42.740130 -73.912527 77 38964ft 524kts
27-May-17 23:35 42.746726 -73.625096 85 38968ft 530kts
27-May-17 23:36 42.745171 -73.426110 85 38971ft 529kts
27-May-17 23:37 42.743532 -73.261740 85 38328ft 509kts
27-May-17 23:38 42.736216 -73.068423 93 35377ft 521kts
27-May-17 23:39 42.715455 -72.874161 94 32417ft 520kts
27-May-17 23:40 42.692004 -72.683090 95 30130ft 498kts
27-May-17 23:41 42.670258 -72.503878 94 28222ft 474kts
27-May-17 23:42 42.649672 -72.334169 96 25354ft 457kts
27-May-17 23:43 42.630749 -72.172608 96 23048ft 423kts
27-May-17 23:44 42.613292 -72.019372 96 20408ft 403kts
27-May-17 23:45 42.595139 -71.874067 96 17876ft 383kts
27-May-17 23:46 42.574650 -71.735574 100 15195ft 368kts
27-May-17 23:47 42.553300 -71.603131 100 12695ft 352kts
27-May-17 23:48 42.529146 -71.480355 105 10905ft 332kts
27-May-17 23:49 42.505075 -71.366041 104 10078ft 294kts
27-May-17 23:50 42.483877 -71.262058 104 9966ft 292kts
27-May-17 23:51 42.466474 -71.162080 83 8510ft 284kts
27-May-17 23:52 42.495503 -71.070484 45 7180ft 244kts
27-May-17 23:53 42.551972 -71.033190 21 5982ft 222kts
27-May-17 23:54 42.597976 -70.990929 82 5432ft 201kts
27-May-17 23:55 42.589614 -70.920427 104 4557ft 176kts
27-May-17 23:56 42.549091 -70.913735 203 3572ft 173kts
27-May-17 23:57 42.507507 -70.935565 201 2859ft 144kts
27-May-17 23:58 42.471201 -70.953553 197 2121ft 134kts
27-May-17 23:59 42.436972 -70.970187 197 1393ft 130kts
28-May-17 00:00 42.403274 -70.986526 197 682ft 128kts
28-May-17 00:01 42.371770 -71.001789 198 32ft 101kts
28-May-17 00:02 42.364163 -71.007107 290 31ft 22kts
28-May-17 00:03 42.363955 -71.013019 199 32ft 17kts
28-May-17 00:04 42.363875 -71.016463 193 31ft 0kts
28-May-17 00:05 42.363875 -71.016463 193 31ft 0kts
28-May-17 00:06 42.363875 -71.016463 193 31ft 0kts

Navigation Log

Ident Type
Flight plan parsing failed, navigation log unavailable